Change the Weather History Date:

Tuesday, October 23, 2012

  Actual Average Record
Temperature  
Mean Temperature 73 °F -  
Max Temperature 82 °F 72 °F 87 °F (2011)
Min Temperature 64 °F 48 °F 37 °F (2013)
Cooling Degree Days 8    
Growing Degree Days 23 (Base 50)    
Moisture  
Dew Point 64 °F    
Average Humidity 71    
Maximum Humidity 83    
Minimum Humidity 54    
Precipitation  
Precipitation 0.00 in - - ()
Sea Level Pressure  
Sea Level Pressure 29.97 in    
Wind  
Wind Speed 9 mph (South)    
Max Wind Speed 16 mph    
Max Gust Speed 20 mph    
Visibility 10 miles    
Events      
Averages and records for this station are not official NWS values.
T = Trace of Precipitation, MM = Missing Value Source: NWS Daily Summary

Daily Weather History Graph

Daily Weather History Graph

Search for Another Location

Airport or City:

Trip Planner

Search our weather history database for the weather conditions in past years. The results will help you decide how hot, cold, wet, or windy it might be!

Date:

Astronomy

Oct. 23, 2012 Rise Set
Actual Time 7:53 AM CDT 7:04 PM CDT
Civil Twilight 7:28 AM CDT 7:28 PM CDT
Nautical Twilight 7:00 AM CDT 7:57 PM CDT
Astronomical Twilight 6:32 AM CDT 8:25 PM CDT
Moon 3:28 PM CDT (10/23) 2:10 AM CDT (10/23)
Length of Visible Light 12h 00m
Length of Day
11h 11m
Waxing Gibbous, 67% of the Moon is Illuminated
Oct 23
Waxing Gibbous
Oct 29
Full
Nov 6
Last Quarter
Nov 13
New
Nov 20
First Quarter

Hourly Weather History & Observations

Time (CDT) Temp. Heat Index Dew Point Humidity Pressure Visibility Wind Dir Wind Speed Gust Speed Precip Events Conditions
12:15 AM 64.4 °F - 59.0 °F 83% 29.96 in 10.0 mi South 3.5 mph - N/A   Clear
12:35 AM 68.0 °F - 59.0 °F 73% 29.96 in 10.0 mi South 4.6 mph - N/A   Clear
12:55 AM 69.8 °F - 59.0 °F 68% 29.95 in 10.0 mi South 3.5 mph - N/A   Clear
1:15 AM 71.6 °F - 59.0 °F 64% 29.95 in 10.0 mi South 10.4 mph - N/A   Clear
1:35 AM 71.6 °F - 60.8 °F 69% 29.95 in 10.0 mi South 8.1 mph - N/A   Clear
1:55 AM 69.8 °F - 60.8 °F 73% 29.95 in 10.0 mi South 4.6 mph - N/A   Clear
2:15 AM 69.8 °F - 62.6 °F 78% 29.95 in 10.0 mi SE 3.5 mph - N/A   Clear
2:55 AM 68.0 °F - 62.6 °F 83% 29.95 in 10.0 mi SSE 8.1 mph - N/A   Clear
3:15 AM 69.8 °F - 64.4 °F 83% 29.95 in 10.0 mi South 9.2 mph - N/A   Clear
3:35 AM 69.8 °F - 64.4 °F 83% 29.95 in 10.0 mi South 11.5 mph - N/A   Mostly Cloudy
3:55 AM 71.6 °F - 64.4 °F 78% 29.95 in 10.0 mi South 8.1 mph 17.3 mph N/A   Overcast
4:15 AM 71.6 °F - 64.4 °F 78% 29.95 in 10.0 mi South 10.4 mph 16.1 mph N/A   Overcast
4:35 AM 71.6 °F - 64.4 °F 78% 29.95 in 10.0 mi South 12.7 mph 19.6 mph N/A   Overcast
4:55 AM 71.6 °F - 64.4 °F 78% 29.95 in 10.0 mi South 9.2 mph 18.4 mph N/A   Overcast
5:15 AM 71.6 °F - 64.4 °F 78% 29.95 in 10.0 mi South 9.2 mph 18.4 mph N/A   Overcast
5:35 AM 71.6 °F - 64.4 °F 78% 29.95 in 10.0 mi South 10.4 mph 17.3 mph N/A   Mostly Cloudy
5:55 AM 71.6 °F - 64.4 °F 78% 29.96 in 10.0 mi South 10.4 mph - N/A   Mostly Cloudy
6:15 AM 71.6 °F - 64.4 °F 78% 29.96 in 10.0 mi South 13.8 mph - N/A   Mostly Cloudy
6:35 AM 71.6 °F - 64.4 °F 78% 29.97 in 10.0 mi South 13.8 mph - N/A   Mostly Cloudy
6:55 AM 71.6 °F - 64.4 °F 78% 29.97 in 10.0 mi South 12.7 mph - N/A   Mostly Cloudy
7:15 AM 69.8 °F - 64.4 °F 83% 29.98 in 10.0 mi South 11.5 mph 18.4 mph N/A   Mostly Cloudy
7:35 AM 69.8 °F - 64.4 °F 83% 29.98 in 10.0 mi South 10.4 mph - N/A   Mostly Cloudy
8:15 AM 69.8 °F - 64.4 °F 83% 30.00 in 10.0 mi South 13.8 mph 19.6 mph N/A   Scattered Clouds
8:35 AM 69.8 °F - 64.4 °F 83% 30.00 in 10.0 mi South 11.5 mph - N/A   Scattered Clouds
9:15 AM 71.6 °F - 64.4 °F 78% 30.02 in 10.0 mi South 10.4 mph - N/A   Mostly Cloudy
9:55 AM 71.6 °F - 62.6 °F 73% 30.02 in 10.0 mi South 16.1 mph 19.6 mph N/A   Scattered Clouds
10:15 AM 71.6 °F - 62.6 °F 73% 30.02 in 10.0 mi South 13.8 mph 17.3 mph N/A   Clear
10:35 AM 71.6 °F - 62.6 °F 73% 30.02 in 10.0 mi South 11.5 mph - N/A   Scattered Clouds
10:55 AM 71.6 °F - 64.4 °F 78% 30.02 in 10.0 mi South 13.8 mph - N/A   Scattered Clouds
11:15 AM 73.4 °F - 64.4 °F 73% 30.03 in 10.0 mi South 11.5 mph 18.4 mph N/A   Scattered Clouds
11:35 AM 73.4 °F - 64.4 °F 73% 30.03 in 10.0 mi SSW 12.7 mph - N/A   Scattered Clouds
11:55 AM 73.4 °F - 64.4 °F 73% 30.03 in 10.0 mi South 10.4 mph - N/A   Scattered Clouds
12:15 PM 73.4 °F - 64.4 °F 73% 30.02 in 10.0 mi South 11.5 mph - N/A   Scattered Clouds
12:35 PM 75.2 °F - 64.4 °F 69% 30.02 in 10.0 mi South 10.4 mph - N/A   Scattered Clouds
12:55 PM 75.2 °F - 64.4 °F 69% 30.01 in 10.0 mi South 10.4 mph - N/A   Mostly Cloudy
1:15 PM 77.0 °F - 64.4 °F 65% 30.01 in 10.0 mi South 12.7 mph - N/A   Mostly Cloudy
1:35 PM 77.0 °F - 64.4 °F 65% 30.00 in 10.0 mi South 12.7 mph - N/A   Mostly Cloudy
1:55 PM 77.0 °F - 64.4 °F 65% 29.98 in 10.0 mi South 11.5 mph - N/A   Mostly Cloudy
2:15 PM 78.8 °F - 64.4 °F 61% 29.97 in 10.0 mi South 12.7 mph 16.1 mph N/A   Scattered Clouds
2:35 PM 78.8 °F - 64.4 °F 61% 29.96 in 10.0 mi SSW 12.7 mph 17.3 mph N/A   Scattered Clouds
2:55 PM 80.6 °F 82.3 °F 64.4 °F 58% 29.95 in 10.0 mi SSW 10.4 mph - N/A   Clear
3:15 PM 80.6 °F 82.3 °F 64.4 °F 58% 29.95 in 10.0 mi South 11.5 mph 16.1 mph N/A   Clear
3:55 PM 82.4 °F 83.9 °F 64.4 °F 54% 29.94 in 10.0 mi South 9.2 mph - N/A   Clear
4:15 PM 82.4 °F 83.9 °F 64.4 °F 54% 29.94 in 10.0 mi South 8.1 mph - N/A   Clear
4:35 PM 82.4 °F 83.9 °F 64.4 °F 54% 29.94 in 10.0 mi South 10.4 mph 16.1 mph N/A   Clear
4:55 PM 82.4 °F 83.9 °F 64.4 °F 54% 29.93 in 10.0 mi South 10.4 mph - N/A   Clear
5:15 PM 82.4 °F 83.9 °F 64.4 °F 54% 29.93 in 10.0 mi South 10.4 mph - N/A   Clear
5:35 PM 80.6 °F 82.3 °F 64.4 °F 58% 29.93 in 10.0 mi South 10.4 mph - N/A   Clear
5:55 PM 80.6 °F 82.3 °F 64.4 °F 58% 29.93 in 10.0 mi South 10.4 mph - N/A   Clear
6:15 PM 80.6 °F 82.3 °F 64.4 °F 58% 29.93 in 10.0 mi South 9.2 mph - N/A   Clear
6:35 PM 78.8 °F - 64.4 °F 61% 29.94 in 10.0 mi South 11.5 mph - N/A   Clear
6:55 PM 78.8 °F - 64.4 °F 61% 29.94 in 7.0 mi South 8.1 mph - N/A   Clear
7:15 PM 77.0 °F - 64.4 °F 65% 29.94 in 10.0 mi South 5.8 mph - N/A   Clear
7:35 PM 73.4 °F - 62.6 °F 69% 29.95 in 10.0 mi South 5.8 mph - N/A   Clear
7:55 PM 75.2 °F - 62.6 °F 65% 29.95 in 10.0 mi South 8.1 mph - N/A   Clear
8:15 PM 77.0 °F - 62.6 °F 61% 29.96 in 10.0 mi South 9.2 mph - N/A   Clear
8:55 PM 75.2 °F - 62.6 °F 65% 29.97 in 10.0 mi South 11.5 mph 17.3 mph N/A   Clear
9:15 PM 73.4 °F - 62.6 °F 69% 29.98 in 10.0 mi South 11.5 mph - N/A   Clear
9:35 PM 73.4 °F - 62.6 °F 69% 29.98 in 10.0 mi South 9.2 mph 18.4 mph N/A   Clear
9:55 PM 73.4 °F - 62.6 °F 69% 29.98 in 10.0 mi South 9.2 mph - N/A   Clear
10:35 PM 71.6 °F - 64.4 °F 78% 29.99 in 10.0 mi SSE 9.2 mph - N/A   Clear
10:55 PM 71.6 °F - 64.4 °F 78% 29.99 in 10.0 mi SSE 6.9 mph - N/A   Clear
11:15 PM 71.6 °F - 64.4 °F 78% 29.99 in 10.0 mi South 5.8 mph - N/A   Clear
11:35 PM 69.8 °F - 64.4 °F 83% 29.99 in 10.0 mi SSE 5.8 mph - N/A   Clear
11:55 PM 69.8 °F - 64.4 °F 83% 29.98 in 10.0 mi SSE 4.6 mph - N/A   Clear